SPBPK EPBC-EPBC
Flight info
| Callsign | SPBPK |
|---|---|
| Flight time | 0h 6m |
| Altitude | 1500 |
| Route | EPBC/10 DCT EPBCF DCT EPWAB DCT EPWAA DCT EPWAT DCT EPWAG DCT AEPJS DCT EPWAK DCT EPWAM DCT EPWAP DCT EPBCZ DCT |
| Aircraft | P208/L-S/C |
Departure
| Time | 2026-04-17 15:37 |
|---|---|
| Airport | Warsaw Babice Airport (EPBC) |
Arrival
| Time | 2026-04-17 15:44 |
|---|---|
| Airport | Warsaw Babice Airport (EPBC) |
| Time | Latitude | Longitude | Altitude | Speed | Heading |
|---|---|---|---|---|---|
| 2026-04-17 15:25 | 52.26013 | 20.91176 | 347 ft | 0 kts | 330° |
| 2026-04-17 15:31 | 52.26030 | 20.91162 | 349 ft | 6 kts | 334° |
| 2026-04-17 15:31 | 52.26039 | 20.91157 | 353 ft | 0 kts | 32° |
| 2026-04-17 15:31 | 52.26053 | 20.91192 | 347 ft | 8 kts | 47° |
| 2026-04-17 15:31 | 52.26105 | 20.91173 | 347 ft | 12 kts | 333° |
| 2026-04-17 15:32 | 52.26186 | 20.91109 | 347 ft | 14 kts | 334° |
| 2026-04-17 15:32 | 52.26274 | 20.91036 | 347 ft | 15 kts | 334° |
| 2026-04-17 15:32 | 52.26368 | 20.90961 | 354 ft | 16 kts | 333° |
| 2026-04-17 15:32 | 52.26466 | 20.90879 | 347 ft | 16 kts | 334° |
| 2026-04-17 15:33 | 52.26568 | 20.90795 | 349 ft | 17 kts | 334° |
| 2026-04-17 15:33 | 52.26668 | 20.90714 | 347 ft | 15 kts | 334° |
| 2026-04-17 15:33 | 52.26759 | 20.90638 | 347 ft | 15 kts | 332° |
| 2026-04-17 15:33 | 52.26852 | 20.90563 | 347 ft | 15 kts | 331° |
| 2026-04-17 15:34 | 52.26916 | 20.90539 | 347 ft | 4 kts | 28° |
| 2026-04-17 15:34 | 52.26928 | 20.90595 | 346 ft | 11 kts | 97° |
| 2026-04-17 15:34 | 52.26891 | 20.90818 | 349 ft | 26 kts | 109° |
| 2026-04-17 15:34 | 52.26841 | 20.91094 | 347 ft | 22 kts | 105° |
| 2026-04-17 15:35 | 52.26840 | 20.91191 | 352 ft | 4 kts | 26° |
| 2026-04-17 15:35 | 52.26859 | 20.91148 | 351 ft | 8 kts | 283° |
| 2026-04-17 15:35 | 52.26895 | 20.90906 | 347 ft | 41 kts | 282° |
| 2026-04-17 15:35 | 52.26963 | 20.90292 | 368 ft | 63 kts | 291° |
| 2026-04-17 15:36 | 52.27049 | 20.89570 | 482 ft | 65 kts | 282° |
| 2026-04-17 15:36 | 52.27088 | 20.88829 | 616 ft | 67 kts | 279° |
| 2026-04-17 15:36 | 52.27098 | 20.88061 | 715 ft | 68 kts | 279° |
| 2026-04-17 15:36 | 52.27139 | 20.87287 | 813 ft | 66 kts | 274° |
| 2026-04-17 15:37 | 52.27220 | 20.86529 | 858 ft | 66 kts | 294° |
| 2026-04-17 15:37 | 52.27392 | 20.85813 | 883 ft | 72 kts | 316° |
| 2026-04-17 15:37 | 52.27857 | 20.85720 | 991 ft | 73 kts | 16° |
| 2026-04-17 15:37 | 52.28284 | 20.86107 | 1126 ft | 73 kts | 26° |
| 2026-04-17 15:38 | 52.28700 | 20.86580 | 1301 ft | 71 kts | 32° |
| 2026-04-17 15:38 | 52.29077 | 20.87141 | 1357 ft | 77 kts | 38° |
| 2026-04-17 15:38 | 52.29423 | 20.87839 | 1406 ft | 80 kts | 49° |
| 2026-04-17 15:38 | 52.29675 | 20.88604 | 1537 ft | 73 kts | 58° |
| 2026-04-17 15:39 | 52.29875 | 20.89378 | 1666 ft | 75 kts | 60° |
| 2026-04-17 15:39 | 52.30081 | 20.90171 | 1751 ft | 79 kts | 57° |
| 2026-04-17 15:39 | 52.30328 | 20.90989 | 1789 ft | 82 kts | 54° |
| 2026-04-17 15:39 | 52.30609 | 20.91844 | 1750 ft | 90 kts | 54° |
| 2026-04-17 15:40 | 52.30910 | 20.92739 | 1764 ft | 89 kts | 57° |
| 2026-04-17 15:40 | 52.30987 | 20.93811 | 1706 ft | 102 kts | 91° |
| 2026-04-17 15:40 | 52.30655 | 20.94826 | 1753 ft | 103 kts | 133° |
| 2026-04-17 15:40 | 52.30102 | 20.95624 | 1683 ft | 110 kts | 130° |
| 2026-04-17 15:41 | 52.29652 | 20.96566 | 1716 ft | 101 kts | 111° |
| 2026-04-17 15:41 | 52.29324 | 20.97620 | 1660 ft | 104 kts | 110° |
| 2026-04-17 15:41 | 52.28923 | 20.98548 | 1689 ft | 99 kts | 130° |
| 2026-04-17 15:41 | 52.28284 | 20.98841 | 1633 ft | 99 kts | 213° |
| 2026-04-17 15:42 | 52.27810 | 20.98136 | 1559 ft | 91 kts | 243° |
| 2026-04-17 15:42 | 52.27448 | 20.97280 | 1515 ft | 91 kts | 244° |
| 2026-04-17 15:42 | 52.27093 | 20.96454 | 1471 ft | 86 kts | 241° |
| 2026-04-17 15:42 | 52.26735 | 20.95729 | 1401 ft | 79 kts | 237° |
| 2026-04-17 15:43 | 52.26397 | 20.95033 | 1228 ft | 75 kts | 253° |
| 2026-04-17 15:43 | 52.26419 | 20.94232 | 1026 ft | 67 kts | 287° |
| 2026-04-17 15:43 | 52.26521 | 20.93488 | 789 ft | 67 kts | 288° |
| 2026-04-17 15:43 | 52.26617 | 20.92788 | 601 ft | 59 kts | 284° |
| 2026-04-17 15:44 | 52.26695 | 20.92171 | 430 ft | 50 kts | 286° |
| 2026-04-17 15:44 | 52.26761 | 20.91707 | 359 ft | 36 kts | 285° |
| 2026-04-17 15:44 | 52.26811 | 20.91359 | 347 ft | 27 kts | 287° |
| 2026-04-17 15:44 | 52.26888 | 20.90891 | 357 ft | 56 kts | 279° |
| 2026-04-17 15:45 | 52.26974 | 20.90237 | 481 ft | 57 kts | 283° |
| 2026-04-17 15:45 | 52.27036 | 20.89593 | 618 ft | 58 kts | 282° |
| 2026-04-17 15:45 | 52.27109 | 20.88935 | 702 ft | 63 kts | 287° |
| 2026-04-17 15:45 | 52.27198 | 20.88241 | 842 ft | 64 kts | 286° |
| 2026-04-17 15:46 | 52.27281 | 20.87496 | 942 ft | 70 kts | 289° |
| 2026-04-17 15:46 | 52.27357 | 20.86724 | 1066 ft | 70 kts | 287° |
| 2026-04-17 15:46 | 52.27429 | 20.85747 | 919 ft | 92 kts | 280° |
| 2026-04-17 15:46 | 52.27465 | 20.84790 | 1052 ft | 81 kts | 280° |
| 2026-04-17 15:47 | 52.27490 | 20.83900 | 1227 ft | 77 kts | 279° |
| 2026-04-17 15:47 | 52.27516 | 20.83008 | 1364 ft | 82 kts | 279° |
| 2026-04-17 15:47 | 52.27571 | 20.82036 | 1421 ft | 87 kts | 280° |
| 2026-04-17 15:47 | 52.27663 | 20.81067 | 1455 ft | 88 kts | 287° |
| 2026-04-17 15:48 | 52.27804 | 20.80076 | 1469 ft | 91 kts | 291° |
| 2026-04-17 15:48 | 52.27942 | 20.79052 | 1478 ft | 93 kts | 291° |
| 2026-04-17 15:48 | 52.28074 | 20.78018 | 1475 ft | 93 kts | 290° |
| 2026-04-17 15:48 | 52.28201 | 20.76972 | 1484 ft | 94 kts | 290° |
| 2026-04-17 15:49 | 52.28341 | 20.75940 | 1491 ft | 94 kts | 289° |
| 2026-04-17 15:49 | 52.28501 | 20.74893 | 1511 ft | 96 kts | 290° |
| 2026-04-17 15:49 | 52.28529 | 20.73786 | 1510 ft | 98 kts | 274° |
| 2026-04-17 15:49 | 52.28468 | 20.72671 | 1499 ft | 99 kts | 270° |
| 2026-04-17 15:50 | 52.28378 | 20.71554 | 1494 ft | 99 kts | 269° |
| 2026-04-17 15:50 | 52.28274 | 20.70447 | 1489 ft | 99 kts | 268° |
| 2026-04-17 15:50 | 52.28169 | 20.69332 | 1492 ft | 100 kts | 269° |
| 2026-04-17 15:50 | 52.28048 | 20.68215 | 1504 ft | 101 kts | 269° |
| 2026-04-17 15:51 | 52.27898 | 20.67113 | 1508 ft | 103 kts | 257° |
| 2026-04-17 15:51 | 52.27484 | 20.66138 | 1494 ft | 108 kts | 226° |
| 2026-04-17 15:51 | 52.26891 | 20.65394 | 1500 ft | 108 kts | 223° |
| 2026-04-17 15:51 | 52.26291 | 20.64644 | 1496 ft | 109 kts | 222° |
| 2026-04-17 15:52 | 52.25680 | 20.63894 | 1503 ft | 110 kts | 222° |
| 2026-04-17 15:52 | 52.25010 | 20.63322 | 1493 ft | 111 kts | 189° |
| 2026-04-17 15:52 | 52.24239 | 20.63174 | 1499 ft | 111 kts | 188° |
| 2026-04-17 15:52 | 52.23470 | 20.63040 | 1498 ft | 112 kts | 187° |
| 2026-04-17 15:53 | 52.22690 | 20.62932 | 1486 ft | 113 kts | 186° |
| 2026-04-17 15:53 | 52.21906 | 20.62801 | 1483 ft | 113 kts | 187° |
| 2026-04-17 15:53 | 52.21130 | 20.62662 | 1491 ft | 115 kts | 187° |
| 2026-04-17 15:53 | 52.20334 | 20.62518 | 1484 ft | 115 kts | 187° |
| 2026-04-17 15:54 | 52.19543 | 20.62393 | 1483 ft | 113 kts | 187° |
| 2026-04-17 15:54 | 52.18764 | 20.62297 | 1477 ft | 111 kts | 183° |
| 2026-04-17 15:54 | 52.18056 | 20.62734 | 1476 ft | 110 kts | 147° |
| 2026-04-17 15:54 | 52.17384 | 20.63369 | 1489 ft | 113 kts | 147° |
| 2026-04-17 15:55 | 52.16704 | 20.64012 | 1482 ft | 112 kts | 147° |
| 2026-04-17 15:55 | 52.16035 | 20.64636 | 1477 ft | 110 kts | 147° |
| 2026-04-17 15:55 | 52.15380 | 20.65245 | 1469 ft | 110 kts | 147° |
| 2026-04-17 15:55 | 52.14723 | 20.65869 | 1465 ft | 109 kts | 147° |
| 2026-04-17 15:56 | 52.14086 | 20.66501 | 1461 ft | 106 kts | 147° |
| 2026-04-17 15:56 | 52.13457 | 20.67113 | 1453 ft | 105 kts | 148° |
| 2026-04-17 15:56 | 52.12826 | 20.67703 | 1450 ft | 104 kts | 148° |
| 2026-04-17 15:56 | 52.12197 | 20.68287 | 1449 ft | 105 kts | 148° |
| 2026-04-17 15:57 | 52.11555 | 20.68862 | 1460 ft | 106 kts | 148° |
| 2026-04-17 15:57 | 52.10916 | 20.69456 | 1465 ft | 106 kts | 147° |
| 2026-04-17 15:57 | 52.10270 | 20.70043 | 1462 ft | 107 kts | 147° |
| 2026-04-17 15:57 | 52.09637 | 20.70624 | 1465 ft | 105 kts | 146° |
| 2026-04-17 15:58 | 52.08993 | 20.71217 | 1466 ft | 107 kts | 145° |
| 2026-04-17 15:58 | 52.08349 | 20.71818 | 1467 ft | 107 kts | 147° |
| 2026-04-17 15:58 | 52.07706 | 20.72405 | 1464 ft | 105 kts | 148° |
| 2026-04-17 15:58 | 52.07067 | 20.72992 | 1463 ft | 106 kts | 146° |
| 2026-04-17 15:59 | 52.06417 | 20.73561 | 1458 ft | 105 kts | 149° |
| 2026-04-17 15:59 | 52.05783 | 20.74152 | 1460 ft | 105 kts | 147° |
| 2026-04-17 15:59 | 52.05162 | 20.74781 | 1466 ft | 105 kts | 146° |
| 2026-04-17 15:59 | 52.04547 | 20.75421 | 1467 ft | 105 kts | 146° |
| 2026-04-17 16:00 | 52.03937 | 20.76053 | 1443 ft | 105 kts | 147° |
| 2026-04-17 16:00 | 52.03337 | 20.76700 | 1449 ft | 102 kts | 140° |
| 2026-04-17 16:00 | 52.02773 | 20.77371 | 1453 ft | 100 kts | 144° |
| 2026-04-17 16:00 | 52.02180 | 20.77981 | 1445 ft | 101 kts | 148° |
| 2026-04-17 16:01 | 52.01554 | 20.78569 | 1468 ft | 106 kts | 147° |
| 2026-04-17 16:01 | 52.00904 | 20.79176 | 1479 ft | 109 kts | 149° |
| 2026-04-17 16:01 | 52.00255 | 20.79792 | 1479 ft | 107 kts | 140° |
| 2026-04-17 16:01 | 51.99732 | 20.80638 | 1481 ft | 106 kts | 130° |
| 2026-04-17 16:02 | 51.99242 | 20.81520 | 1476 ft | 107 kts | 126° |
| 2026-04-17 16:02 | 51.98780 | 20.82440 | 1464 ft | 103 kts | 123° |
| 2026-04-17 16:02 | 51.98456 | 20.83441 | 1457 ft | 99 kts | 111° |
| 2026-04-17 16:02 | 51.98160 | 20.84436 | 1455 ft | 98 kts | 110° |
| 2026-04-17 16:03 | 51.97876 | 20.85434 | 1455 ft | 97 kts | 108° |
| 2026-04-17 16:03 | 51.97597 | 20.86426 | 1458 ft | 97 kts | 105° |
| 2026-04-17 16:03 | 51.97307 | 20.87442 | 1471 ft | 101 kts | 107° |
| 2026-04-17 16:03 | 51.97032 | 20.88506 | 1480 ft | 102 kts | 109° |
| 2026-04-17 16:04 | 51.96753 | 20.89572 | 1481 ft | 103 kts | 110° |
| 2026-04-17 16:04 | 51.96484 | 20.90633 | 1473 ft | 102 kts | 107° |
| 2026-04-17 16:04 | 51.96206 | 20.91691 | 1469 ft | 102 kts | 107° |
| 2026-04-17 16:04 | 51.95929 | 20.92731 | 1464 ft | 100 kts | 108° |
| 2026-04-17 16:05 | 51.95649 | 20.93759 | 1467 ft | 100 kts | 109° |
| 2026-04-17 16:05 | 51.95376 | 20.94806 | 1468 ft | 102 kts | 108° |
| 2026-04-17 16:05 | 51.95087 | 20.95861 | 1473 ft | 103 kts | 105° |
| 2026-04-17 16:05 | 51.94790 | 20.96913 | 1487 ft | 102 kts | 108° |
| 2026-04-17 16:06 | 51.94541 | 20.97989 | 1484 ft | 101 kts | 100° |
| 2026-04-17 16:06 | 51.94339 | 20.99087 | 1484 ft | 103 kts | 98° |
| 2026-04-17 16:06 | 51.94153 | 21.00203 | 1476 ft | 104 kts | 96° |
| 2026-04-17 16:06 | 51.93961 | 21.01336 | 1486 ft | 104 kts | 98° |
| 2026-04-17 16:07 | 51.93794 | 21.02470 | 1493 ft | 104 kts | 96° |
| 2026-04-17 16:07 | 51.93642 | 21.03607 | 1495 ft | 103 kts | 91° |
| 2026-04-17 16:07 | 51.93547 | 21.04741 | 1484 ft | 100 kts | 86° |
| 2026-04-17 16:07 | 51.93465 | 21.05846 | 1472 ft | 97 kts | 88° |
| 2026-04-17 16:08 | 51.93418 | 21.06932 | 1469 ft | 96 kts | 86° |
| 2026-04-17 16:08 | 51.93375 | 21.08023 | 1477 ft | 97 kts | 84° |
| 2026-04-17 16:08 | 51.93337 | 21.09111 | 1478 ft | 96 kts | 84° |
| 2026-04-17 16:08 | 51.93340 | 21.10192 | 1475 ft | 95 kts | 81° |
| 2026-04-17 16:09 | 51.93339 | 21.11265 | 1471 ft | 96 kts | 82° |
| 2026-04-17 16:09 | 51.93346 | 21.12321 | 1473 ft | 95 kts | 83° |
| 2026-04-17 16:09 | 51.93352 | 21.13388 | 1470 ft | 95 kts | 82° |
| 2026-04-17 16:09 | 51.93377 | 21.14459 | 1467 ft | 96 kts | 81° |
| 2026-04-17 16:10 | 51.93400 | 21.15530 | 1468 ft | 94 kts | 81° |
| 2026-04-17 16:10 | 51.93426 | 21.16582 | 1467 ft | 93 kts | 77° |
| 2026-04-17 16:10 | 51.93474 | 21.17634 | 1474 ft | 95 kts | 78° |
| 2026-04-17 16:10 | 51.93532 | 21.18714 | 1477 ft | 97 kts | 77° |
| 2026-04-17 16:11 | 51.93643 | 21.19759 | 1474 ft | 94 kts | 71° |
| 2026-04-17 16:11 | 51.93797 | 21.20770 | 1470 ft | 92 kts | 68° |
| 2026-04-17 16:11 | 51.93976 | 21.21781 | 1477 ft | 94 kts | 65° |
| 2026-04-17 16:11 | 51.94137 | 21.22809 | 1473 ft | 93 kts | 68° |
| 2026-04-17 16:12 | 51.94298 | 21.23823 | 1473 ft | 93 kts | 66° |
| 2026-04-17 16:12 | 51.94459 | 21.24828 | 1462 ft | 91 kts | 66° |
| 2026-04-17 16:12 | 51.94623 | 21.25819 | 1457 ft | 91 kts | 66° |
| 2026-04-17 16:12 | 51.94785 | 21.26820 | 1466 ft | 92 kts | 67° |
| 2026-04-17 16:13 | 51.94961 | 21.27824 | 1466 ft | 93 kts | 67° |
| 2026-04-17 16:13 | 51.95144 | 21.28831 | 1460 ft | 93 kts | 68° |
| 2026-04-17 16:13 | 51.95316 | 21.29831 | 1458 ft | 91 kts | 65° |
| 2026-04-17 16:13 | 51.95585 | 21.30727 | 1399 ft | 86 kts | 40° |
| 2026-04-17 16:14 | 51.96431 | 21.32088 | 1423 ft | 89 kts | 52° |
| 2026-04-17 16:14 | 51.96717 | 21.33037 | 1327 ft | 98 kts | 64° |
| 2026-04-17 16:14 | 51.96768 | 21.34135 | 1298 ft | 100 kts | 89° |
| 2026-04-17 16:15 | 51.96628 | 21.35232 | 1272 ft | 101 kts | 92° |
| 2026-04-17 16:15 | 51.96518 | 21.36389 | 1229 ft | 99 kts | 93° |
| 2026-04-17 16:15 | 51.96335 | 21.37355 | 1126 ft | 87 kts | 122° |
| 2026-04-17 16:15 | 51.95828 | 21.37691 | 928 ft | 80 kts | 191° |
| 2026-04-17 16:16 | 51.95327 | 21.37398 | 686 ft | 73 kts | 223° |
| 2026-04-17 16:16 | 51.95174 | 21.36766 | 521 ft | 59 kts | 281° |
| 2026-04-17 16:16 | 51.95208 | 21.36166 | 384 ft | 48 kts | 278° |
| 2026-04-17 16:16 | 51.95236 | 21.35691 | 315 ft | 36 kts | 271° |
| 2026-04-17 16:17 | 51.95270 | 21.35159 | 327 ft | 58 kts | 273° |
| 2026-04-17 16:17 | 51.95313 | 21.34469 | 423 ft | 62 kts | 276° |
| 2026-04-17 16:17 | 51.95348 | 21.33814 | 572 ft | 55 kts | 274° |
| 2026-04-17 16:17 | 51.95389 | 21.33136 | 603 ft | 66 kts | 271° |
| 2026-04-17 16:18 | 51.95399 | 21.32459 | 776 ft | 59 kts | 280° |
| 2026-04-17 16:18 | 51.95696 | 21.32044 | 865 ft | 65 kts | 349° |
| 2026-04-17 16:18 | 51.96167 | 21.32164 | 952 ft | 74 kts | 7° |
| 2026-04-17 16:18 | 51.96631 | 21.32474 | 1047 ft | 75 kts | 35° |
| 2026-04-17 16:19 | 51.96785 | 21.33336 | 1093 ft | 92 kts | 90° |
| 2026-04-17 16:19 | 51.96511 | 21.34258 | 1211 ft | 87 kts | 112° |
| 2026-04-17 16:19 | 51.96210 | 21.35128 | 1236 ft | 93 kts | 107° |
| 2026-04-17 16:19 | 51.96040 | 21.36114 | 1331 ft | 90 kts | 90° |
| 2026-04-17 16:20 | 51.95960 | 21.37023 | 1247 ft | 76 kts | 91° |
| 2026-04-17 16:20 | 51.95555 | 21.37545 | 906 ft | 86 kts | 188° |
| 2026-04-17 16:20 | 51.95141 | 21.37107 | 645 ft | 62 kts | 263° |
| 2026-04-17 16:20 | 51.95179 | 21.36461 | 433 ft | 54 kts | 288° |
| 2026-04-17 16:21 | 51.95226 | 21.35923 | 325 ft | 45 kts | 277° |
| 2026-04-17 16:21 | 51.95259 | 21.35451 | 304 ft | 50 kts | 277° |
| 2026-04-17 16:21 | 51.95291 | 21.34801 | 412 ft | 59 kts | 275° |
| 2026-04-17 16:21 | 51.95305 | 21.34137 | 549 ft | 58 kts | 276° |
| 2026-04-17 16:22 | 51.95333 | 21.33506 | 667 ft | 55 kts | 280° |
| 2026-04-17 16:22 | 51.95404 | 21.32871 | 643 ft | 62 kts | 306° |
| 2026-04-17 16:22 | 51.95830 | 21.32701 | 637 ft | 68 kts | 1° |
| 2026-04-17 16:22 | 51.96276 | 21.32831 | 778 ft | 63 kts | 7° |
| 2026-04-17 16:23 | 51.96672 | 21.33027 | 947 ft | 56 kts | 12° |
| 2026-04-17 16:23 | 51.97066 | 21.33331 | 951 ft | 75 kts | 44° |
| 2026-04-17 16:23 | 51.97024 | 21.34272 | 1036 ft | 95 kts | 103° |
| 2026-04-17 16:23 | 51.96805 | 21.35241 | 1285 ft | 88 kts | 103° |
| 2026-04-17 16:24 | 51.96601 | 21.36190 | 1399 ft | 91 kts | 99° |
| 2026-04-17 16:24 | 51.96417 | 21.37167 | 1438 ft | 92 kts | 99° |
| 2026-04-17 16:24 | 51.96218 | 21.38125 | 1425 ft | 82 kts | 107° |
| 2026-04-17 16:24 | 51.95711 | 21.38488 | 1212 ft | 85 kts | 190° |
| 2026-04-17 16:25 | 51.95186 | 21.38198 | 960 ft | 77 kts | 236° |
| 2026-04-17 16:25 | 51.95104 | 21.37490 | 701 ft | 60 kts | 278° |
| 2026-04-17 16:25 | 51.95155 | 21.36845 | 516 ft | 58 kts | 283° |
| 2026-04-17 16:25 | 51.95209 | 21.36205 | 392 ft | 53 kts | 283° |
| 2026-04-17 16:26 | 51.95240 | 21.35678 | 315 ft | 41 kts | 275° |
| 2026-04-17 16:26 | 51.95272 | 21.35128 | 338 ft | 58 kts | 275° |
| 2026-04-17 16:26 | 51.95313 | 21.34485 | 475 ft | 58 kts | 275° |
| 2026-04-17 16:26 | 51.95364 | 21.33821 | 573 ft | 60 kts | 280° |
| 2026-04-17 16:27 | 51.95400 | 21.33168 | 696 ft | 58 kts | 274° |
| 2026-04-17 16:27 | 51.95479 | 21.32466 | 709 ft | 70 kts | 294° |
| 2026-04-17 16:27 | 51.95593 | 21.31689 | 894 ft | 68 kts | 285° |
| 2026-04-17 16:27 | 51.95611 | 21.30891 | 1009 ft | 81 kts | 275° |
| 2026-04-17 16:28 | 51.95777 | 21.30033 | 1029 ft | 85 kts | 319° |
| 2026-04-17 16:28 | 51.96273 | 21.29490 | 1120 ft | 83 kts | 329° |
| 2026-04-17 16:28 | 51.96719 | 21.29025 | 1309 ft | 75 kts | 329° |
| 2026-04-17 16:28 | 51.97172 | 21.28569 | 1400 ft | 80 kts | 330° |
| 2026-04-17 16:29 | 51.97662 | 21.28100 | 1441 ft | 82 kts | 332° |
| 2026-04-17 16:29 | 51.98160 | 21.27648 | 1457 ft | 82 kts | 332° |
| 2026-04-17 16:29 | 51.98667 | 21.27231 | 1464 ft | 81 kts | 338° |
| 2026-04-17 16:29 | 51.99204 | 21.26931 | 1468 ft | 83 kts | 344° |
| 2026-04-17 16:30 | 51.99762 | 21.26678 | 1468 ft | 84 kts | 346° |
| 2026-04-17 16:30 | 52.00335 | 21.26446 | 1474 ft | 85 kts | 347° |
| 2026-04-17 16:30 | 52.00907 | 21.26230 | 1475 ft | 85 kts | 348° |
| 2026-04-17 16:30 | 52.01476 | 21.26041 | 1473 ft | 84 kts | 348° |
| 2026-04-17 16:31 | 52.02053 | 21.25876 | 1477 ft | 84 kts | 349° |
| 2026-04-17 16:31 | 52.02618 | 21.25715 | 1460 ft | 81 kts | 349° |
| 2026-04-17 16:31 | 52.03170 | 21.25553 | 1451 ft | 80 kts | 348° |
| 2026-04-17 16:31 | 52.03715 | 21.25391 | 1446 ft | 79 kts | 348° |
| 2026-04-17 16:32 | 52.04251 | 21.25231 | 1441 ft | 78 kts | 349° |
| 2026-04-17 16:32 | 52.04778 | 21.25042 | 1445 ft | 77 kts | 348° |
| 2026-04-17 16:32 | 52.05305 | 21.24832 | 1465 ft | 80 kts | 349° |
| 2026-04-17 16:32 | 52.05853 | 21.24647 | 1476 ft | 81 kts | 349° |
| 2026-04-17 16:33 | 52.06411 | 21.24487 | 1475 ft | 83 kts | 349° |
| 2026-04-17 16:33 | 52.06975 | 21.24327 | 1472 ft | 82 kts | 349° |
| 2026-04-17 16:33 | 52.07533 | 21.24167 | 1470 ft | 81 kts | 349° |
| 2026-04-17 16:33 | 52.08091 | 21.24005 | 1471 ft | 83 kts | 349° |
| 2026-04-17 16:34 | 52.08662 | 21.23839 | 1477 ft | 84 kts | 349° |
| 2026-04-17 16:34 | 52.09237 | 21.23663 | 1478 ft | 85 kts | 348° |
| 2026-04-17 16:34 | 52.09818 | 21.23470 | 1476 ft | 86 kts | 348° |
| 2026-04-17 16:34 | 52.10403 | 21.23262 | 1477 ft | 86 kts | 348° |
| 2026-04-17 16:35 | 52.10987 | 21.23044 | 1479 ft | 87 kts | 348° |
| 2026-04-17 16:35 | 52.11570 | 21.22823 | 1482 ft | 87 kts | 349° |
| 2026-04-17 16:35 | 52.12094 | 21.22368 | 1479 ft | 87 kts | 322° |
| 2026-04-17 16:35 | 52.12547 | 21.21702 | 1480 ft | 88 kts | 321° |
| 2026-04-17 16:36 | 52.12988 | 21.21013 | 1482 ft | 88 kts | 320° |
| 2026-04-17 16:36 | 52.13431 | 21.20326 | 1480 ft | 88 kts | 321° |
| 2026-04-17 16:36 | 52.13877 | 21.19644 | 1479 ft | 88 kts | 321° |
| 2026-04-17 16:36 | 52.14327 | 21.18976 | 1479 ft | 87 kts | 321° |
| 2026-04-17 16:37 | 52.14781 | 21.18321 | 1474 ft | 87 kts | 323° |
| 2026-04-17 16:37 | 52.15230 | 21.17677 | 1471 ft | 86 kts | 322° |
| 2026-04-17 16:37 | 52.15679 | 21.17064 | 1470 ft | 85 kts | 324° |
| 2026-04-17 16:37 | 52.16146 | 21.16479 | 1469 ft | 84 kts | 326° |
| 2026-04-17 16:38 | 52.16610 | 21.15909 | 1472 ft | 84 kts | 326° |
| 2026-04-17 16:38 | 52.17085 | 21.15353 | 1473 ft | 85 kts | 327° |
| 2026-04-17 16:38 | 52.17559 | 21.14794 | 1471 ft | 84 kts | 328° |
| 2026-04-17 16:38 | 52.18025 | 21.14238 | 1461 ft | 82 kts | 327° |
| 2026-04-17 16:39 | 52.18488 | 21.13681 | 1465 ft | 83 kts | 327° |
| 2026-04-17 16:39 | 52.18961 | 21.13135 | 1469 ft | 84 kts | 328° |
| 2026-04-17 16:39 | 52.19444 | 21.12591 | 1470 ft | 85 kts | 329° |
| 2026-04-17 16:39 | 52.19936 | 21.12052 | 1475 ft | 86 kts | 330° |
| 2026-04-17 16:40 | 52.20441 | 21.11531 | 1479 ft | 87 kts | 332° |
| 2026-04-17 16:40 | 52.20972 | 21.11036 | 1484 ft | 88 kts | 334° |
| 2026-04-17 16:40 | 52.21512 | 21.10544 | 1486 ft | 89 kts | 334° |
| 2026-04-17 16:40 | 52.22053 | 21.10050 | 1485 ft | 89 kts | 334° |
| 2026-04-17 16:41 | 52.22581 | 21.09557 | 1484 ft | 89 kts | 334° |
| 2026-04-17 16:41 | 52.23121 | 21.09054 | 1484 ft | 89 kts | 333° |
| 2026-04-17 16:41 | 52.23655 | 21.08543 | 1485 ft | 90 kts | 332° |
| 2026-04-17 16:41 | 52.24176 | 21.07974 | 1485 ft | 90 kts | 329° |
| 2026-04-17 16:42 | 52.24682 | 21.07379 | 1486 ft | 90 kts | 328° |
| 2026-04-17 16:42 | 52.25188 | 21.06776 | 1482 ft | 90 kts | 327° |
| 2026-04-17 16:42 | 52.25692 | 21.06168 | 1484 ft | 90 kts | 328° |
| 2026-04-17 16:42 | 52.26191 | 21.05557 | 1482 ft | 90 kts | 327° |
| 2026-04-17 16:43 | 52.26690 | 21.04942 | 1481 ft | 90 kts | 327° |
| 2026-04-17 16:43 | 52.27177 | 21.04342 | 1529 ft | 85 kts | 326° |
| 2026-04-17 16:43 | 52.27631 | 21.03776 | 1667 ft | 83 kts | 326° |
| 2026-04-17 16:43 | 52.28102 | 21.03190 | 1729 ft | 87 kts | 326° |
| 2026-04-17 16:44 | 52.28533 | 21.02484 | 1749 ft | 93 kts | 298° |
| 2026-04-17 16:44 | 52.28687 | 21.01427 | 1728 ft | 99 kts | 291° |
| 2026-04-17 16:44 | 52.28882 | 21.00361 | 1734 ft | 94 kts | 293° |
| 2026-04-17 16:44 | 52.28751 | 20.99364 | 1731 ft | 98 kts | 233° |
| 2026-04-17 16:45 | 52.28267 | 20.98534 | 1534 ft | 106 kts | 235° |
| 2026-04-17 16:45 | 52.27831 | 20.97617 | 1449 ft | 99 kts | 240° |
| 2026-04-17 16:45 | 52.27415 | 20.96790 | 1301 ft | 89 kts | 231° |
| 2026-04-17 16:45 | 52.26975 | 20.96194 | 1195 ft | 82 kts | 222° |
| 2026-04-17 16:46 | 52.26519 | 20.95680 | 1094 ft | 77 kts | 232° |
| 2026-04-17 16:46 | 52.26349 | 20.94946 | 937 ft | 69 kts | 285° |
| 2026-04-17 16:46 | 52.26432 | 20.94210 | 819 ft | 66 kts | 289° |
| 2026-04-17 16:46 | 52.26524 | 20.93495 | 665 ft | 63 kts | 286° |
| 2026-04-17 16:47 | 52.26619 | 20.92782 | 539 ft | 61 kts | 285° |
| 2026-04-17 16:47 | 52.26710 | 20.92123 | 424 ft | 58 kts | 284° |
| 2026-04-17 16:47 | 52.26791 | 20.91518 | 362 ft | 50 kts | 288° |
| 2026-04-17 16:47 | 52.26861 | 20.91025 | 345 ft | 38 kts | 288° |
| 2026-04-17 16:48 | 52.26924 | 20.90681 | 345 ft | 27 kts | 287° |
| 2026-04-17 16:48 | 52.26931 | 20.90555 | 346 ft | 4 kts | 227° |
| 2026-04-17 16:48 | 52.26889 | 20.90531 | 346 ft | 8 kts | 164° |
| 2026-04-17 16:48 | 52.26798 | 20.90608 | 346 ft | 21 kts | 154° |
| 2026-04-17 16:49 | 52.26650 | 20.90725 | 349 ft | 25 kts | 155° |
| 2026-04-17 16:49 | 52.26496 | 20.90854 | 352 ft | 25 kts | 153° |
| 2026-04-17 16:49 | 52.26334 | 20.90987 | 354 ft | 26 kts | 152° |
| 2026-04-17 16:49 | 52.26184 | 20.91110 | 346 ft | 20 kts | 153° |
| 2026-04-17 16:50 | 52.26089 | 20.91186 | 346 ft | 11 kts | 153° |
| 2026-04-17 16:50 | 52.26055 | 20.91194 | 349 ft | 3 kts | 204° |
| 2026-04-17 16:50 | 52.26050 | 20.91187 | 349 ft | 5 kts | 236° |
| 2026-04-17 16:50 | 52.26028 | 20.91140 | 346 ft | 5 kts | 171° |
| 2026-04-17 16:51 | 52.26005 | 20.91168 | 346 ft | 1 kts | 68° |
| 2026-04-17 16:51 | 52.26009 | 20.91171 | 346 ft | 0 kts | 335° |
| 2026-04-17 16:51 | 52.26009 | 20.91170 | 346 ft | 0 kts | 332° |